Lagoa Alegre, Brazil
Current Conditions -  °F | °C
As of 3:00 PM on Thursday 18 Dec 2014 (Local Time) from SBTE Reporting Station
Scattered Clouds Scattered Clouds  
Wind Chill: 95°   Ceiling: Unl
Heat Index: 98°   Visibility: 6mi
Dew Point: 66°   Wind: 8mph
Humidity: 39%   Direction: 350°N
Pressure: 29.74"   Gusts: NA
Location:  4.52°S, 42.62°W
Report Text: SBTE 181800Z 35007KT 9999 SCT040 35/19 Q1007
Loading
Personal Weather Stations






























Interactive Weather Map New forecast layout! Learn more

10-Day Weather Forecast

Advertisements
Track Severe Weather on mobile